Pagrindinis puslapis
METAR-TAF:

METAR-TAF

Oro uostai :

Nasau, Bahamos

platuma: 25-03N, ilguma: 077-28W, Aukštis: 3 m

Dabartinis oras

Ataskaita buvo paskelbta 28 minutes, ne 20:00 UTC
Vėjas 12 kt iš Pietryčių
Temperatūra 29°C
Drėgmė 62%
Slėgis 1019 hPa
Matomumas 10 km arba daugiau
Išsisklaidę debesys ne aukštis 3000 ft

METAR: MYNN 262000Z 14012KT 9999 SCT030 29/21 A3008

Laikas: 16:28 (20:28 UTC)

Prognozė

Ataskaita buvo paskelbta 9 valandos ir 58 minutes, ne 10:30 UTC
Prognozė galioja nuo 26 metu 12 UTC su 27 metu 12 UTC
Vėjas 15 kt iš Rytų
Matomumas 10 km arba daugiau
Išsisklaidę debesys ne aukštis 2500 ft

TAF: MYNN 261030Z 2612/2712 10015KT 9999 SCT025

Orai ataskaitas ir orų prognozės (METAR, TAF).

turimą stotys yra geltonos ir raudonos taškus žemėlapyje.

Perkelti pele per norėdami pamatyti stoties vardą.

Tada spustelėkite, norėdami matyti oro stebėjimo ir prognozės.

Norėdami pakeisti žemėlapį: spustelėkite ant žalios mygtukų su juodo kryžiaus žemyn,; žalią mygtuką su brūkšneliu, jei norite nutolinti; arba žalių rodyklių gretimoms žemėlapius.


METAR-TAF: